Time;durP1;ratioP1;P1;durP2;ratioP2;P2;SDS_P1;SDS_P2;PMS_P1;PMS_P2;Temp;Humidity;BMP_temperature;BMP_pressure;BME280_temperature;BME280_humidity;BME280_pressure;Samples;Min_cycle;Max_cycle;Signal;HPM_P1;HPM_P2
2021/05/12 00:02:07;;;;;;;33.33;27.17;;;;;;;12.18;94.82;99681.41;5083129;28;20249;-77
2021/05/12 00:04:33;;;;;;;28.53;25.67;;;;;;;12.22;94.31;99675.97;5082893;28;20571;-77
2021/05/12 00:06:59;;;;;;;30.37;25.13;;;;;;;12.28;94.06;99674.91;5083062;28;20211;-77
2021/05/12 00:09:25;;;;;;;28.97;25.87;;;;;;;12.25;93.85;99681.13;5083268;28;20238;-77
2021/05/12 00:11:51;;;;;;;28.97;26.07;;;;;;;12.21;93.71;99691.72;5082482;28;20199;-77
2021/05/12 00:14:17;;;;;;;32.60;26.97;;;;;;;12.16;93.93;99689.31;5083095;28;20893;-77
2021/05/12 00:16:44;;;;;;;28.63;25.33;;;;;;;12.13;94.00;99686.81;5082721;28;20201;-77
2021/05/12 00:19:09;;;;;;;32.43;27.10;;;;;;;12.15;nan;99694.59;5082125;28;20234;-78
2021/05/12 00:21:41;;;;;;;30.93;26.50;;;;;;;12.12;94.17;99690.31;5083288;28;20317;-76
2021/05/12 00:24:07;;;;;;;34.87;25.93;;;;;;;12.09;94.54;99700.91;5081809;28;20211;-77
2021/05/12 00:26:37;;;;;;;31.70;27.03;;;;;;;12.12;94.39;99695.56;5083869;28;20239;-77
2021/05/12 00:29:04;;;;;;;29.17;26.13;;;;;;;12.17;94.39;99696.25;5082414;28;20246;-78
2021/05/12 00:31:30;;;;;;;31.03;25.43;;;;;;;12.29;94.18;99693.16;5083198;28;20234;-77
2021/05/12 00:33:56;;;;;;;28.97;25.83;;;;;;;12.37;nan;99702.47;5082581;28;20252;-77
2021/05/12 00:36:22;;;;;;;26.27;23.80;;;;;;;12.46;93.42;99689.03;5083279;28;20234;-77
2021/05/12 00:38:48;;;;;;;26.00;23.27;;;;;;;12.46;92.79;99695.13;5083706;28;20595;-78
2021/05/12 00:41:14;;;;;;;25.23;22.57;;;;;;;12.44;92.96;99691.72;5082920;28;20262;-78
2021/05/12 00:43:40;;;;;;;25.77;23.27;;;;;;;12.42;92.82;99684.84;5082613;28;20210;-77
2021/05/12 00:46:06;;;;;;;25.30;22.70;;;;;;;12.38;92.99;99688.50;5081987;28;20206;-78
2021/05/12 00:48:31;;;;;;;26.27;23.70;;;;;;;12.27;92.97;99699.38;5082556;28;20233;-78
2021/05/12 00:50:58;;;;;;;27.67;24.87;;;;;;;12.30;93.18;99696.63;5082868;28;20203;-78
2021/05/12 00:53:24;;;;;;;27.03;24.53;;;;;;;12.21;93.55;99696.97;5081914;28;20596;-77
2021/05/12 00:55:50;;;;;;;30.17;25.00;;;;;;;12.10;93.89;99698.22;5082412;28;20242;-78
2021/05/12 00:58:16;;;;;;;28.30;25.30;;;;;;;12.06;93.79;99701.03;5082764;28;20966;-79
2021/05/12 01:00:42;;;;;;;30.00;25.50;;;;;;;12.04;94.07;99698.47;5082008;28;20215;-77
2021/05/12 01:03:09;;;;;;;26.77;24.07;;;;;;;12.02;94.12;99702.91;5083049;28;20233;-78
2021/05/12 01:05:58;;;;;;;27.80;24.87;;;;;;;11.95;93.91;99697.94;5082457;28;20206;-78
2021/05/12 01:08:25;;;;;;;27.77;24.83;;;;;;;11.94;94.11;99694.47;5085433;28;20805;-77
2021/05/12 01:10:51;;;;;;;32.57;25.97;;;;;;;11.94;94.34;99696.25;5086304;28;20616;-76
2021/05/12 01:13:17;;;;;;;29.27;25.33;;;;;;;11.91;94.46;99692.84;5086284;28;20239;-78
2021/05/12 01:15:44;;;;;;;29.60;25.53;;;;;;;11.97;94.37;99694.38;5086420;28;20259;-79
2021/05/12 01:18:12;;;;;;;27.30;24.70;;;;;;;11.97;94.28;99688.28;5086633;28;20276;-76
2021/05/12 01:20:47;;;;;;;28.57;25.37;;;;;;;11.88;94.40;99689.44;5086488;28;20249;-79
2021/05/12 01:23:14;;;;;;;31.60;25.73;;;;;;;11.83;94.58;99688.75;5085841;28;20206;-78
2021/05/12 01:25:39;;;;;;;31.97;25.53;;;;;;;11.76;94.85;99695.97;5086505;28;20701;-77
2021/05/12 01:28:05;;;;;;;33.13;27.77;;;;;;;11.77;95.06;99696.81;5086747;28;20246;-78
2021/05/12 01:30:31;;;;;;;34.23;27.10;;;;;;;11.77;95.23;99695.03;5086723;28;20218;-79
2021/05/12 01:32:59;;;;;;;36.63;26.17;;;;;;;11.77;95.32;99694.19;5086637;28;20611;-78
2021/05/12 01:35:25;;;;;;;32.37;26.43;;;;;;;11.87;95.26;99698.19;5086897;28;20293;-77
2021/05/12 01:37:52;;;;;;;29.20;25.20;;;;;;;11.89;94.83;99694.66;5086738;28;20235;-77
2021/05/12 01:40:18;;;;;;;32.63;26.50;;;;;;;11.92;94.88;99694.53;5086757;28;20203;-77
2021/05/12 01:42:44;;;;;;;35.77;28.47;;;;;;;11.95;94.71;99697.94;5086610;28;20219;-78
2021/05/12 01:45:11;;;;;;;35.20;27.20;;;;;;;11.88;94.80;99699.91;5087315;28;20298;-78
2021/05/12 01:47:37;;;;;;;38.73;29.30;;;;;;;11.93;94.87;99700.59;5086206;28;20521;-78
2021/05/12 01:50:06;;;;;;;44.47;30.43;;;;;;;12.04;94.71;99706.31;5086795;28;20715;-78
2021/05/12 01:52:38;;;;;;;43.23;29.60;;;;;;;12.09;94.53;99703.50;5087386;28;20234;-78
2021/05/12 01:55:07;;;;;;;48.83;31.10;;;;;;;12.03;94.19;99704.63;5086546;28;20649;-78
2021/05/12 01:57:33;;;;;;;50.00;31.10;;;;;;;12.14;94.19;99703.38;5086014;28;20227;-78
2021/05/12 01:59:59;;;;;;;45.20;31.30;;;;;;;12.19;93.76;99702.28;5085643;28;20206;-79
2021/05/12 02:02:25;;;;;;;47.73;31.40;;;;;;;12.20;93.45;99703.97;5085519;28;20570;-78
2021/05/12 02:04:51;;;;;;;44.23;31.40;;;;;;;12.21;93.23;99702.19;5085546;28;20202;-78
2021/05/12 02:07:16;;;;;;;43.70;31.20;;;;;;;12.22;92.98;99699.53;5085309;28;20934;-77
2021/05/12 02:09:48;;;;;;;49.60;33.00;;;;;;;12.16;93.20;99694.53;5085730;28;20228;-79
2021/05/12 02:12:15;;;;;;;47.23;32.67;;;;;;;12.28;93.14;99698.44;5085305;28;20568;-78
2021/05/12 02:14:40;;;;;;;43.37;31.60;;;;;;;12.30;92.34;99704.47;5085386;28;20693;-77
2021/05/12 02:17:06;;;;;;;45.80;31.30;;;;;;;12.14;92.47;99696.34;5084893;28;20216;-79
2021/05/12 02:19:32;;;;;;;44.63;31.20;;;;;;;12.11;92.72;99697.34;5084786;28;20704;-78
2021/05/12 02:21:58;;;;;;;46.67;30.97;;;;;;;12.20;92.87;99705.75;5084585;28;20235;-79
2021/05/12 02:24:24;;;;;;;46.97;31.80;;;;;;;12.16;92.64;99704.16;5084894;28;20235;-78
2021/05/12 02:26:50;;;;;;;46.73;32.77;;;;;;;12.10;92.93;99706.06;5085357;28;20731;-78
2021/05/12 02:29:17;;;;;;;48.53;30.93;;;;;;;12.20;93.15;99709.22;5083958;28;20231;-79
2021/05/12 02:31:42;;;;;;;45.80;33.13;;;;;;;12.07;93.21;99713.19;5085178;28;20238;-77
2021/05/12 02:34:08;;;;;;;44.33;31.23;;;;;;;12.06;93.51;99704.47;5084435;28;20233;-78
2021/05/12 02:36:34;;;;;;;42.77;30.93;;;;;;;12.04;93.60;99706.31;5084290;28;20674;-76
2021/05/12 02:39:00;;;;;;;45.07;31.37;;;;;;;12.02;93.72;99704.66;5085329;28;20315;-78
2021/05/12 02:41:26;;;;;;;46.83;32.30;;;;;;;12.05;93.85;99697.56;5084344;28;20225;-79
2021/05/12 02:43:52;;;;;;;41.07;30.83;;;;;;;12.07;93.59;99692.25;5084699;28;20268;-77
2021/05/12 02:46:18;;;;;;;49.80;31.67;;;;;;;11.99;93.66;99696.91;5084941;28;20225;-78
2021/05/12 02:48:44;;;;;;;52.50;32.23;;;;;;;11.98;94.00;99709.16;5084514;28;20240;-78
2021/05/12 02:51:10;;;;;;;47.37;31.73;;;;;;;12.02;93.74;99705.50;5084505;28;20628;-79
2021/05/12 02:53:36;;;;;;;48.43;32.33;;;;;;;11.98;94.08;99709.16;5084011;28;20232;-78
2021/05/12 02:56:02;;;;;;;42.53;30.10;;;;;;;11.95;94.15;99703.16;5084882;28;20221;-77
2021/05/12 02:58:28;;;;;;;48.30;33.60;;;;;;;11.96;94.58;99705.72;5085001;28;20270;-79
2021/05/12 03:00:53;;;;;;;41.90;29.43;;;;;;;12.03;94.27;99708.97;5084766;28;20216;-77
2021/05/12 03:03:20;;;;;;;48.70;31.90;;;;;;;12.06;94.41;99704.47;5084006;28;20674;-79
2021/05/12 03:05:46;;;;;;;41.43;31.30;;;;;;;12.08;93.99;99715.75;5083618;28;20614;-77
2021/05/12 03:08:12;;;;;;;49.27;32.43;;;;;;;12.09;94.12;99717.47;5084416;28;20301;-78
2021/05/12 03:10:40;;;;;;;43.33;31.93;;;;;;;12.04;94.03;99711.53;5084499;28;20602;-79
2021/05/12 03:13:07;;;;;;;48.23;31.53;;;;;;;12.06;94.18;99711.50;5083589;28;20689;-78
2021/05/12 03:15:34;;;;;;;49.80;31.80;;;;;;;12.11;93.92;99712.19;5083694;28;20633;-77
2021/05/12 03:18:00;;;;;;;43.67;31.37;;;;;;;12.18;94.08;99705.78;5083692;28;20540;-78
2021/05/12 03:20:29;;;;;;;43.03;31.37;;;;;;;12.23;93.54;99713.47;5084612;28;20203;-77
2021/05/12 03:22:55;;;;;;;46.47;31.63;;;;;;;12.16;93.71;99712.00;5083446;28;20743;-78
2021/05/12 03:25:22;;;;;;;45.00;31.30;;;;;;;12.28;93.30;99712.38;5084106;28;20309;-77
2021/05/12 03:27:48;;;;;;;45.90;31.80;;;;;;;12.13;93.66;99715.59;5084566;28;20306;-78
2021/05/12 03:30:17;;;;;;;48.67;30.93;;;;;;;12.26;93.77;99723.81;5083182;28;20257;-78
2021/05/12 03:32:43;;;;;;;48.03;30.70;;;;;;;12.35;93.17;99728.72;5083715;28;20252;-78
2021/05/12 03:35:10;;;;;;;38.70;30.03;;;;;;;12.26;93.14;99722.06;5083671;28;20665;-77
2021/05/12 03:37:37;;;;;;;41.93;31.73;;;;;;;12.20;93.07;99722.28;5084110;28;20262;-78
2021/05/12 03:40:04;;;;;;;46.77;31.90;;;;;;;12.21;93.18;99724.00;5084334;28;20225;-78
2021/05/12 03:42:29;;;;;;;49.27;33.47;;;;;;;12.11;93.55;99733.97;5083759;28;20217;-77
2021/05/12 03:44:56;;;;;;;53.00;33.60;;;;;;;12.07;93.88;99731.50;5083320;28;20207;-77
2021/05/12 03:47:22;;;;;;;55.03;34.63;;;;;;;12.02;94.14;99730.81;5083689;28;20204;-78
2021/05/12 03:49:48;;;;;;;54.03;33.80;;;;;;;12.03;94.20;99741.25;5082600;28;20228;-77
2021/05/12 03:52:14;;;;;;;53.70;34.87;;;;;;;12.06;94.17;99733.25;5083970;28;20337;-78
2021/05/12 03:54:40;;;;;;;52.73;34.23;;;;;;;12.08;94.46;99741.06;5082787;28;20217;-77
2021/05/12 03:57:07;;;;;;;51.63;33.70;;;;;;;12.07;94.19;99736.72;5084005;28;20210;-78
2021/05/12 03:59:33;;;;;;;50.40;33.10;;;;;;;12.15;94.03;99749.53;5084041;28;20207;-79
2021/05/12 04:01:59;;;;;;;42.53;32.70;;;;;;;12.25;93.56;99746.53;5083136;28;20380;-77
2021/05/12 04:04:24;;;;;;;44.60;30.57;;;;;;;12.29;93.26;99750.75;5083774;28;20241;-79
2021/05/12 04:06:50;;;;;;;43.90;29.40;;;;;;;12.36;93.09;99747.88;5082844;28;20217;-77
2021/05/12 04:09:16;;;;;;;39.17;29.70;;;;;;;12.27;92.87;99755.19;5083667;28;20321;-77
2021/05/12 04:11:46;;;;;;;39.70;29.73;;;;;;;12.15;93.46;99749.53;5082420;28;20705;-77
2021/05/12 04:14:12;;;;;;;37.63;30.00;;;;;;;12.31;93.43;99751.53;5082808;28;20844;-78
2021/05/12 04:16:38;;;;;;;34.73;29.03;;;;;;;12.40;92.85;99757.34;5083663;28;20500;-77
2021/05/12 04:19:04;;;;;;;29.60;26.40;;;;;;;12.34;92.16;99742.72;5082624;28;20313;-78
2021/05/12 04:21:30;;;;;;;35.40;28.93;;;;;;;12.20;92.58;99748.44;5083338;28;20210;-76
2021/05/12 04:23:56;;;;;;;38.20;30.67;;;;;;;12.09;93.59;99753.22;5082185;28;20213;-77
2021/05/12 04:26:21;;;;;;;40.20;29.33;;;;;;;12.01;93.44;99750.03;5083314;28;20211;-77
2021/05/12 04:28:48;;;;;;;40.80;29.43;;;;;;;11.99;93.71;99749.22;5082977;28;20363;-78
2021/05/12 04:31:14;;;;;;;44.00;29.87;;;;;;;12.02;93.98;99752.59;5082641;28;20201;-77
2021/05/12 04:33:40;;;;;;;46.47;30.10;;;;;;;12.02;93.85;99754.38;5082955;28;20242;-76
2021/05/12 04:36:07;;;;;;;41.87;29.43;;;;;;;11.97;93.95;99759.78;5083264;28;20254;-77
2021/05/12 04:38:33;;;;;;;40.20;29.93;;;;;;;11.98;94.14;99766.69;5083352;28;20281;-77
2021/05/12 04:40:59;;;;;;;49.27;31.43;;;;;;;11.93;94.17;99760.75;5083486;28;20206;-78
2021/05/12 04:43:25;;;;;;;42.00;31.43;;;;;;;11.98;93.84;99764.06;5086274;28;20664;-77
2021/05/12 04:45:52;;;;;;;41.13;30.23;;;;;;;12.07;93.48;99768.13;5087585;28;20210;-77
2021/05/12 04:48:18;;;;;;;40.57;30.40;;;;;;;12.18;93.80;99768.59;5086571;28;20230;-78
2021/05/12 04:50:44;;;;;;;43.90;31.20;;;;;;;12.05;93.48;99773.44;5087282;28;20226;-77
2021/05/12 04:53:10;;;;;;;44.63;33.50;;;;;;;12.03;93.12;99779.59;5086685;28;20271;-78
2021/05/12 04:55:36;;;;;;;50.03;35.53;;;;;;;11.98;93.10;99774.53;5087086;28;20210;-77
2021/05/12 04:58:02;;;;;;;53.83;37.33;;;;;;;12.03;93.26;99780.47;5087476;28;20309;-78
2021/05/12 05:00:29;;;;;;;52.33;36.53;;;;;;;12.03;93.30;99787.44;5086121;28;20203;-77
2021/05/12 05:02:56;;;;;;;48.87;35.97;;;;;;;12.08;93.13;99785.53;5086483;28;20288;-77
2021/05/12 05:05:24;;;;;;;59.23;39.57;;;;;;;12.06;92.63;99788.19;5087174;28;20202;-78
2021/05/12 05:07:50;;;;;;;54.73;36.73;;;;;;;12.06;92.70;99795.19;5086930;28;20262;-78
2021/05/12 05:10:16;;;;;;;54.57;38.93;;;;;;;12.08;92.96;99798.59;5087290;28;20256;-78
2021/05/12 05:12:42;;;;;;;55.13;39.17;;;;;;;12.09;93.16;99800.31;5085612;28;20219;-77
2021/05/12 05:15:09;;;;;;;56.23;38.17;;;;;;;12.05;92.95;99803.94;5087272;28;20225;-78
2021/05/12 05:17:35;;;;;;;47.53;34.63;;;;;;;12.01;92.09;99791.88;5085721;28;20221;-77
2021/05/12 05:20:03;;;;;;;47.67;34.63;;;;;;;12.01;92.15;99797.09;5085521;28;20200;-77
2021/05/12 05:22:29;;;;;;;56.83;37.73;;;;;;;12.05;92.14;99803.94;5086774;28;20526;-76
2021/05/12 05:24:56;;;;;;;52.43;37.07;;;;;;;12.05;92.02;99802.19;5085657;28;20203;-77
2021/05/12 05:27:23;;;;;;;57.83;40.10;;;;;;;12.01;92.89;99802.34;5086355;28;20407;-78
2021/05/12 05:29:49;;;;;;;53.37;36.50;;;;;;;12.02;92.50;99804.91;5085827;28;20218;-78
2021/05/12 05:32:15;;;;;;;52.57;37.20;;;;;;;12.11;91.95;99801.97;5086058;28;20200;-78
2021/05/12 05:34:41;;;;;;;44.40;33.73;;;;;;;12.08;91.77;99794.22;5085435;28;20238;-76
2021/05/12 05:37:08;;;;;;;44.00;33.97;;;;;;;12.11;91.49;99799.34;5085951;28;20263;-77
2021/05/12 05:39:36;;;;;;;42.17;31.93;;;;;;;12.21;90.95;99804.25;5085883;28;20247;-78
2021/05/12 05:42:03;;;;;;;42.93;30.47;;;;;;;12.28;90.90;99796.13;5086178;28;20290;-77
2021/05/12 05:44:29;;;;;;;37.03;29.77;;;;;;;12.23;90.73;99791.97;5084938;28;20247;-78
2021/05/12 05:46:55;;;;;;;31.93;27.53;;;;;;;12.20;90.36;99798.16;5084962;28;20750;-78
2021/05/12 05:49:21;;;;;;;31.13;27.80;;;;;;;12.22;90.35;99813.81;5084753;28;20319;-77
2021/05/12 05:51:47;;;;;;;31.63;28.17;;;;;;;12.16;90.02;99811.41;5085623;28;20198;-78
2021/05/12 05:54:14;;;;;;;30.47;27.30;;;;;;;12.05;90.55;99812.66;5084214;28;20202;-78
2021/05/12 05:56:39;;;;;;;35.00;28.20;;;;;;;12.03;91.12;99813.59;5085381;28;20239;-78
2021/05/12 05:59:05;;;;;;;33.40;28.63;;;;;;;12.04;91.40;99810.09;5086049;28;20631;-79
2021/05/12 06:01:31;;;;;;;33.47;27.23;;;;;;;11.94;91.49;99811.31;5085744;28;20211;-77
2021/05/12 06:03:57;;;;;;;30.83;26.73;;;;;;;12.01;91.29;99807.56;5084407;28;20277;-78
2021/05/12 06:06:23;;;;;;;38.60;29.33;;;;;;;12.01;91.87;99802.34;5085476;28;20551;-77
2021/05/12 06:08:48;;;;;;;29.50;26.37;;;;;;;11.97;92.24;99809.47;5083549;28;20335;-76
2021/05/12 06:11:15;;;;;;;27.77;24.73;;;;;;;12.03;91.68;99804.00;5085326;28;20233;-78
2021/05/12 06:13:41;;;;;;;25.90;23.47;;;;;;;12.04;90.75;99808.31;5084583;28;20245;-78
2021/05/12 06:16:07;;;;;;;25.27;22.93;;;;;;;12.13;90.64;99817.63;5085077;28;20356;-77
2021/05/12 06:18:33;;;;;;;26.17;23.37;;;;;;;12.06;90.26;99818.75;5085387;28;20263;-78
2021/05/12 06:20:58;;;;;;;27.30;23.30;;;;;;;12.00;90.33;99832.03;5085066;28;20601;-78
2021/05/12 06:23:24;;;;;;;27.00;24.13;;;;;;;11.96;90.68;99833.91;5084831;28;20659;-77
2021/05/12 06:25:50;;;;;;;29.37;26.43;;;;;;;11.99;91.09;99833.81;5085227;28;20283;-77
2021/05/12 06:28:18;;;;;;;30.43;26.20;;;;;;;12.05;91.19;99835.31;5084496;28;20243;-78
2021/05/12 06:30:49;;;;;;;30.70;26.03;;;;;;;12.06;91.09;99837.91;5085375;28;20226;-78
2021/05/12 06:33:15;;;;;;;28.50;25.53;;;;;;;12.12;90.87;99827.22;5084379;28;20662;-76
2021/05/12 06:35:41;;;;;;;28.87;25.93;;;;;;;12.11;90.66;99829.91;5084646;28;20204;-79
2021/05/12 06:38:07;;;;;;;28.70;25.80;;;;;;;12.10;90.15;99830.81;5084466;28;20230;-76
2021/05/12 06:40:32;;;;;;;34.53;26.93;;;;;;;12.10;90.02;99846.50;5084656;28;20271;-76
2021/05/12 06:42:59;;;;;;;27.27;24.37;;;;;;;12.12;90.49;99849.91;5083236;28;20203;-75
2021/05/12 06:45:26;;;;;;;28.73;25.70;;;;;;;12.11;89.89;99854.31;5085074;28;20205;-76
2021/05/12 06:47:54;;;;;;;29.30;26.33;;;;;;;12.14;90.08;99848.09;5083849;28;20275;-77
2021/05/12 06:50:20;;;;;;;28.60;25.40;;;;;;;12.19;89.77;99842.69;5083491;28;20271;-76
2021/05/12 06:52:51;;;;;;;26.83;24.03;;;;;;;12.21;89.60;99852.22;5083170;28;20241;-75
2021/05/12 06:55:17;;;;;;;27.63;24.83;;;;;;;12.20;89.37;99847.88;5084195;28;20734;-74
2021/05/12 06:57:42;;;;;;;26.27;23.70;;;;;;;12.28;89.72;99855.47;5084311;28;20254;-77
2021/05/12 07:00:10;;;;;;;24.87;22.50;;;;;;;12.36;88.96;99852.56;5083148;28;20229;-77
2021/05/12 07:02:36;;;;;;;26.27;23.67;;;;;;;12.43;88.83;99868.00;5083353;28;20238;-75
2021/05/12 07:05:03;;;;;;;24.47;22.17;;;;;;;12.45;88.35;99871.44;5083170;28;20723;-76
2021/05/12 07:07:28;;;;;;;24.33;21.93;;;;;;;12.50;88.36;99871.25;5083584;28;20260;-77
2021/05/12 07:09:54;;;;;;;18.87;17.37;;;;;;;12.51;87.53;99865.13;5084120;28;20233;-76
2021/05/12 07:12:20;;;;;;;19.97;18.17;;;;;;;12.48;87.57;99873.91;5082736;28;20270;-77
2021/05/12 07:14:46;;;;;;;17.93;16.43;;;;;;;12.55;87.42;99884.16;5083054;28;20345;-75
2021/05/12 07:17:12;;;;;;;15.90;14.50;;;;;;;12.44;86.96;99888.03;5083519;28;20237;-76
2021/05/12 07:19:38;;;;;;;15.97;14.57;;;;;;;12.36;86.91;99889.22;5082868;28;20200;-75
2021/05/12 07:22:04;;;;;;;15.83;14.43;;;;;;;12.19;87.05;99889.78;5083345;28;20509;-77
2021/05/12 07:24:30;;;;;;;17.13;15.67;;;;;;;12.28;86.83;99894.72;5083123;28;20228;-76
2021/05/12 07:26:56;;;;;;;16.17;14.87;;;;;;;12.36;86.86;99887.44;5083465;28;20693;-76
2021/05/12 07:29:22;;;;;;;16.17;14.83;;;;;;;12.23;86.64;99892.28;5083120;28;20226;-75
2021/05/12 07:31:48;;;;;;;22.73;15.93;;;;;;;12.26;86.99;99897.38;5083720;28;20219;-76
2021/05/12 07:34:14;;;;;;;16.80;15.40;;;;;;;12.29;87.12;99899.06;5082668;28;20203;-75
2021/05/12 07:36:41;;;;;;;17.07;15.57;;;;;;;12.25;87.32;99895.69;5082674;28;20296;-76
2021/05/12 07:39:07;;;;;;;17.13;15.73;;;;;;;12.20;87.25;99899.38;5082891;28;20312;-75
2021/05/12 07:41:34;;;;;;;15.90;14.63;;;;;;;12.25;86.49;99900.94;5083024;28;20986;-75
2021/05/12 07:44:00;;;;;;;16.07;14.77;;;;;;;12.32;85.96;99906.78;5082882;28;20221;-76
2021/05/12 07:46:26;;;;;;;17.33;15.87;;;;;;;12.37;85.94;99907.50;5082787;28;20202;-76
2021/05/12 07:48:52;;;;;;;15.67;14.30;;;;;;;12.30;85.98;99914.69;5081413;28;20312;-74
2021/05/12 07:51:18;;;;;;;14.83;13.53;;;;;;;12.37;86.23;99922.31;5083136;28;20217;-76
2021/05/12 07:53:45;;;;;;;14.03;12.93;;;;;;;12.48;85.24;99928.03;5081385;28;20209;-76
2021/05/12 07:56:11;;;;;;;14.30;13.13;;;;;;;12.48;86.16;99922.81;5081777;28;20213;-75
2021/05/12 07:58:36;;;;;;;14.97;13.63;;;;;;;12.56;86.61;99920.78;5080967;28;20229;-75
2021/05/12 08:01:07;;;;;;;14.47;13.37;;;;;;;12.62;85.58;99924.94;5082062;28;20207;-75
2021/05/12 08:03:33;;;;;;;14.60;13.47;;;;;;;12.61;86.35;99928.47;5080931;28;20214;-75
2021/05/12 08:05:59;;;;;;;15.40;14.07;;;;;;;12.75;86.88;99931.44;5081210;28;20202;-75
2021/05/12 08:08:25;;;;;;;15.50;13.93;;;;;;;12.64;87.29;99930.97;5080873;28;20745;-73
2021/05/12 08:10:52;;;;;;;14.87;13.37;;;;;;;12.52;87.26;99924.41;5080115;28;21388;-73
2021/05/12 08:13:17;;;;;;;13.50;12.33;;;;;;;12.44;86.66;99918.59;5082160;28;20207;-75
2021/05/12 08:15:43;;;;;;;14.27;13.10;;;;;;;12.49;87.61;99925.38;5081845;28;20259;-75
2021/05/12 08:18:09;;;;;;;14.17;13.07;;;;;;;12.50;87.67;99934.09;5081925;28;20225;-74
2021/05/12 08:20:35;;;;;;;14.30;13.10;;;;;;;12.61;87.87;99937.19;5082477;28;20216;-74
2021/05/12 08:23:01;;;;;;;14.43;12.97;;;;;;;12.63;87.21;99937.13;5081833;28;20216;-74
2021/05/12 08:25:27;;;;;;;13.93;12.90;;;;;;;12.62;88.30;99938.88;5082294;28;20308;-77
2021/05/12 08:27:55;;;;;;;14.57;13.37;;;;;;;12.74;87.47;99937.59;5081687;28;20222;-76
2021/05/12 08:30:23;;;;;;;15.13;13.73;;;;;;;12.73;88.32;99943.75;5081606;28;20226;-74
2021/05/12 08:32:50;;;;;;;14.03;12.90;;;;;;;12.75;88.86;99941.09;5081679;28;20213;-74
2021/05/12 08:35:16;;;;;;;14.63;13.43;;;;;;;12.80;87.48;99939.97;5081612;28;20209;-76
2021/05/12 08:37:41;;;;;;;13.70;12.60;;;;;;;12.91;86.54;99934.38;5082649;28;20273;-76
2021/05/12 08:40:08;;;;;;;14.73;13.63;;;;;;;12.88;86.99;99937.09;5082250;28;20201;-77
2021/05/12 08:42:35;;;;;;;13.67;12.47;;;;;;;12.83;87.78;99926.78;5082324;28;20205;-76
2021/05/12 08:45:02;;;;;;;15.17;13.93;;;;;;;13.04;87.98;99929.50;5081839;28;20221;-76
2021/05/12 08:47:29;;;;;;;12.60;11.60;;;;;;;12.81;85.61;99925.16;5081647;28;20310;-74
2021/05/12 08:49:56;;;;;;;12.70;11.70;;;;;;;12.97;85.98;99928.91;5078982;28;20708;-76
2021/05/12 08:52:23;;;;;;;12.27;11.27;;;;;;;13.04;85.52;99930.41;5082378;28;20234;-76
2021/05/12 08:54:49;;;;;;;11.87;10.87;;;;;;;13.14;85.31;99935.28;5082302;28;20214;-73
2021/05/12 08:57:15;;;;;;;11.50;10.60;;;;;;;12.90;84.95;99936.16;5083033;28;20215;-74
2021/05/12 08:59:41;;;;;;;11.40;10.60;;;;;;;13.03;83.85;99931.28;5082076;28;20292;-75
2021/05/12 09:02:08;;;;;;;10.53;9.83;;;;;;;13.03;83.33;99933.91;5081329;28;20210;-75
2021/05/12 09:04:33;;;;;;;10.23;9.53;;;;;;;13.14;83.22;99923.03;5081779;28;20658;-76
2021/05/12 09:06:59;;;;;;;10.70;9.90;;;;;;;13.32;83.11;99937.25;5082342;28;20206;-75
2021/05/12 09:09:27;;;;;;;10.23;9.43;;;;;;;13.44;82.40;99933.31;5082622;28;20731;-76
2021/05/12 09:11:56;;;;;;;10.73;9.93;;;;;;;13.53;82.27;99934.69;5081776;28;20206;-75
2021/05/12 09:14:27;;;;;;;9.97;9.27;;;;;;;13.58;81.07;99932.75;5081724;28;20739;-76
2021/05/12 09:16:54;;;;;;;9.60;8.90;;;;;;;13.68;80.46;99921.81;5081192;28;20724;-76
2021/05/12 09:19:24;;;;;;;10.43;9.70;;;;;;;13.57;81.06;99925.78;5081273;28;20273;-75
2021/05/12 09:21:52;;;;;;;10.97;10.07;;;;;;;13.46;81.31;99929.69;5081434;28;20211;-76
2021/05/12 09:24:20;;;;;;;10.07;9.33;;;;;;;13.39;81.72;99937.84;5080822;28;20669;-76
2021/05/12 09:26:46;;;;;;;10.00;9.20;;;;;;;13.19;81.63;99939.44;5081876;28;20237;-75
2021/05/12 09:29:12;;;;;;;10.80;10.00;;;;;;;13.04;82.15;99938.25;5082297;28;20268;-75
2021/05/12 09:31:37;;;;;;;10.83;10.03;;;;;;;13.15;82.43;99942.22;5085792;28;20203;-76
2021/05/12 09:34:06;;;;;;;10.60;9.60;;;;;;;13.18;81.07;99948.22;5084657;28;20862;-76
2021/05/12 09:36:33;;;;;;;11.30;10.50;;;;;;;13.35;81.08;99936.25;5084953;28;20209;-74
2021/05/12 09:38:59;;;;;;;10.37;9.60;;;;;;;13.42;79.73;99941.22;5085632;28;20785;-74
2021/05/12 09:41:32;;;;;;;10.23;9.53;;;;;;;13.48;79.47;99935.72;5085039;28;20213;-73
2021/05/12 09:43:59;;;;;;;9.73;8.97;;;;;;;13.47;80.14;99936.63;5084366;28;20265;-76
2021/05/12 09:46:27;;;;;;;10.17;9.47;;;;;;;13.49;80.38;99953.16;5084727;28;20203;-75
2021/05/12 09:49:12;;;;;;;10.63;9.87;;;;;;;13.61;80.43;99932.63;5083263;28;20582;-75
2021/05/12 09:51:41;;;;;;;9.93;9.27;;;;;;;13.64;80.27;99938.59;5085209;28;20296;-77
2021/05/12 09:54:13;;;;;;;10.03;9.23;;;;;;;13.73;79.66;99937.38;5084299;28;20657;-76
2021/05/12 09:56:43;;;;;;;10.03;9.13;;;;;;;13.63;78.72;99934.25;5086009;28;20211;-77
2021/05/12 09:59:11;;;;;;;10.00;9.30;;;;;;;13.58;78.33;99933.59;5084164;28;20450;-77
2021/05/12 10:01:48;;;;;;;10.47;9.63;;;;;;;13.83;79.08;99935.22;5084992;28;20243;-78
2021/05/12 10:04:22;;;;;;;10.73;9.83;;;;;;;13.75;78.23;99929.44;5084072;28;20234;-77
2021/05/12 10:06:50;;;;;;;10.10;9.37;;;;;;;13.59;77.77;99940.53;5084774;28;21056;-76
2021/05/12 10:09:18;;;;;;;9.87;9.07;;;;;;;13.70;76.91;99940.97;5084702;28;20225;-76
2021/05/12 10:11:59;;;;;;;10.07;9.27;;;;;;;13.70;77.45;99946.22;5084188;28;20257;-77
2021/05/12 10:14:25;;;;;;;10.47;9.57;;;;;;;13.94;77.60;99932.19;5083964;28;20210;-76
2021/05/12 10:16:52;;;;;;;11.27;10.23;;;;;;;13.90;77.13;99939.31;5084204;28;20292;-76
2021/05/12 10:19:18;;;;;;;10.13;9.33;;;;;;;14.14;77.17;99934.84;5083167;28;20269;-75
2021/05/12 10:21:44;;;;;;;9.50;8.90;;;;;;;14.28;76.33;99942.13;5084855;28;20209;-77
2021/05/12 10:24:11;;;;;;;10.03;9.33;;;;;;;14.29;75.36;99935.94;5083309;28;20238;-77
2021/05/12 10:26:37;;;;;;;9.97;9.17;;;;;;;14.56;75.66;99939.19;5083973;28;20260;-75
2021/05/12 10:29:03;;;;;;;9.67;9.07;;;;;;;14.57;74.22;99934.78;5084085;28;20226;-77
2021/05/12 10:31:30;;;;;;;9.87;9.17;;;;;;;14.72;74.16;99938.53;5084166;28;20391;-77
2021/05/12 10:33:57;;;;;;;10.27;9.57;;;;;;;14.63;73.84;99945.06;5083082;28;20249;-75
2021/05/12 10:36:24;;;;;;;10.30;9.50;;;;;;;14.69;72.82;99945.63;5083636;28;20239;-76
2021/05/12 10:38:52;;;;;;;9.13;8.43;;;;;;;14.65;72.47;99943.22;5082758;28;20226;-77
2021/05/12 10:41:43;;;;;;;10.53;9.80;;;;;;;14.53;73.39;99936.69;5082979;28;20208;-76
2021/05/12 10:44:16;;;;;;;9.67;8.97;;;;;;;14.55;72.53;99941.84;5082196;28;20225;-77
2021/05/12 10:46:59;;;;;;;8.77;8.07;;;;;;;14.64;73.50;99944.97;5082308;28;20588;-76
2021/05/12 10:49:26;;;;;;;9.70;9.00;;;;;;;14.63;71.13;99938.03;5081782;28;20280;-74
2021/05/12 10:51:52;;;;;;;9.93;9.23;;;;;;;14.68;72.10;99932.56;5083145;28;20211;-73
2021/05/12 10:54:37;;;;;;;11.23;10.43;;;;;;;14.77;73.75;99937.41;5083138;28;20254;-74
2021/05/12 10:57:04;;;;;;;10.00;9.20;;;;;;;14.79;72.58;99932.09;5082587;28;20245;-77
2021/05/12 10:59:30;;;;;;;10.70;10.00;;;;;;;14.88;72.55;99935.16;5082787;28;20260;-74
2021/05/12 11:01:56;;;;;;;11.77;10.57;;;;;;;15.13;72.99;99941.94;5083335;28;20227;-76
2021/05/12 11:04:24;;;;;;;11.03;10.30;;;;;;;15.35;72.14;99936.53;5081777;28;20201;-76
2021/05/12 11:06:56;;;;;;;11.07;10.37;;;;;;;15.14;70.91;99937.53;5083146;28;20214;-74
2021/05/12 11:09:35;;;;;;;10.70;10.00;;;;;;;14.80;71.66;99939.88;5081722;28;20224;-76
2021/05/12 11:12:07;;;;;;;11.33;10.50;;;;;;;14.85;72.37;99943.19;5082702;28;20209;-76
2021/05/12 11:14:35;;;;;;;11.00;10.13;;;;;;;15.09;70.54;99940.38;5082226;28;20215;-76
2021/05/12 11:17:02;;;;;;;10.93;10.23;;;;;;;15.31;71.81;99942.00;5082368;28;20664;-73
2021/05/12 11:19:47;;;;;;;11.00;10.20;;;;;;;15.37;69.41;99942.56;5081243;28;20753;-76